sensor_id;sensor_type;location;lat;lon;timestamp;temperature;humidity
12470;DHT22;36499;46.484;13.832;2022-08-21T00:02:27;14.00;99.90
12470;DHT22;36499;46.484;13.832;2022-08-21T00:04:54;14.00;99.90
12470;DHT22;36499;46.484;13.832;2022-08-21T00:07:22;14.00;99.90
12470;DHT22;36499;46.484;13.832;2022-08-21T00:09:50;14.00;99.90
12470;DHT22;36499;46.484;13.832;2022-08-21T00:12:18;14.00;99.90
12470;DHT22;36499;46.484;13.832;2022-08-21T00:14:46;14.00;99.90
12470;DHT22;36499;46.484;13.832;2022-08-21T00:17:14;14.00;99.90
12470;DHT22;36499;46.484;13.832;2022-08-21T00:19:41;14.00;99.90
12470;DHT22;36499;46.484;13.832;2022-08-21T00:22:08;14.00;99.90
12470;DHT22;36499;46.484;13.832;2022-08-21T00:24:35;14.00;99.90
12470;DHT22;36499;46.484;13.832;2022-08-21T00:27:04;14.00;99.90
12470;DHT22;36499;46.484;13.832;2022-08-21T00:29:31;14.00;99.90
12470;DHT22;36499;46.484;13.832;2022-08-21T00:31:58;13.90;99.90
12470;DHT22;36499;46.484;13.832;2022-08-21T00:34:25;13.90;99.90
12470;DHT22;36499;46.484;13.832;2022-08-21T00:36:53;13.90;99.90
12470;DHT22;36499;46.484;13.832;2022-08-21T00:39:20;13.90;99.90
12470;DHT22;36499;46.484;13.832;2022-08-21T00:41:47;13.90;99.90
12470;DHT22;36499;46.484;13.832;2022-08-21T00:44:16;13.90;99.90
12470;DHT22;36499;46.484;13.832;2022-08-21T00:46:43;13.90;99.90
12470;DHT22;36499;46.484;13.832;2022-08-21T00:49:12;13.90;99.90
12470;DHT22;36499;46.484;13.832;2022-08-21T00:51:43;13.90;99.90
12470;DHT22;36499;46.484;13.832;2022-08-21T00:54:16;13.90;99.90
12470;DHT22;36499;46.484;13.832;2022-08-21T00:56:46;13.90;99.90
12470;DHT22;36499;46.484;13.832;2022-08-21T00:59:19;13.90;99.90
12470;DHT22;36499;46.484;13.832;2022-08-21T01:01:49;13.90;99.90
12470;DHT22;36499;46.484;13.832;2022-08-21T01:04:18;13.90;99.90
12470;DHT22;36499;46.484;13.832;2022-08-21T01:06:45;13.90;99.90
12470;DHT22;36499;46.484;13.832;2022-08-21T01:09:13;13.90;99.90
12470;DHT22;36499;46.484;13.832;2022-08-21T01:11:41;13.90;99.90
12470;DHT22;36499;46.484;13.832;2022-08-21T01:14:09;13.90;99.90
12470;DHT22;36499;46.484;13.832;2022-08-21T01:16:39;13.90;99.90
12470;DHT22;36499;46.484;13.832;2022-08-21T01:19:10;13.90;99.90
12470;DHT22;36499;46.484;13.832;2022-08-21T01:21:39;13.90;99.90
12470;DHT22;36499;46.484;13.832;2022-08-21T01:24:06;13.90;99.90
12470;DHT22;36499;46.484;13.832;2022-08-21T01:26:35;13.90;99.90
12470;DHT22;36499;46.484;13.832;2022-08-21T01:29:06;13.90;99.90
12470;DHT22;36499;46.484;13.832;2022-08-21T01:31:38;13.90;99.90
12470;DHT22;36499;46.484;13.832;2022-08-21T01:34:07;13.90;99.90
12470;DHT22;36499;46.484;13.832;2022-08-21T01:36:35;13.90;99.90
12470;DHT22;36499;46.484;13.832;2022-08-21T01:39:04;13.90;99.90
12470;DHT22;36499;46.484;13.832;2022-08-21T01:41:32;13.90;99.90
12470;DHT22;36499;46.484;13.832;2022-08-21T01:43:59;13.90;99.90
12470;DHT22;36499;46.484;13.832;2022-08-21T01:46:26;13.90;99.90
12470;DHT22;36499;46.484;13.832;2022-08-21T01:48:53;13.90;99.90
12470;DHT22;36499;46.484;13.832;2022-08-21T01:51:21;13.90;99.90
12470;DHT22;36499;46.484;13.832;2022-08-21T01:53:48;13.90;99.90
12470;DHT22;36499;46.484;13.832;2022-08-21T01:56:17;13.90;99.90
12470;DHT22;36499;46.484;13.832;2022-08-21T01:58:46;13.90;99.90
12470;DHT22;36499;46.484;13.832;2022-08-21T02:01:14;13.90;99.90
12470;DHT22;36499;46.484;13.832;2022-08-21T02:03:42;13.90;99.90
12470;DHT22;36499;46.484;13.832;2022-08-21T02:06:13;13.90;99.90
12470;DHT22;36499;46.484;13.832;2022-08-21T02:08:43;13.90;99.90
12470;DHT22;36499;46.484;13.832;2022-08-21T02:11:11;13.90;99.90
12470;DHT22;36499;46.484;13.832;2022-08-21T02:13:39;13.80;99.90
12470;DHT22;36499;46.484;13.832;2022-08-21T02:16:07;13.80;99.90
12470;DHT22;36499;46.484;13.832;2022-08-21T02:18:36;13.80;99.90
12470;DHT22;36499;46.484;13.832;2022-08-21T02:21:04;13.90;99.90
12470;DHT22;36499;46.484;13.832;2022-08-21T02:23:33;13.90;99.90
12470;DHT22;36499;46.484;13.832;2022-08-21T02:26:02;13.90;99.90
12470;DHT22;36499;46.484;13.832;2022-08-21T02:28:32;13.90;99.90
12470;DHT22;36499;46.484;13.832;2022-08-21T02:31:02;13.90;99.90
12470;DHT22;36499;46.484;13.832;2022-08-21T02:33:30;13.80;99.90
12470;DHT22;36499;46.484;13.832;2022-08-21T02:35:57;13.80;99.90
12470;DHT22;36499;46.484;13.832;2022-08-21T02:38:27;13.80;99.90
12470;DHT22;36499;46.484;13.832;2022-08-21T02:40:58;13.80;99.90
12470;DHT22;36499;46.484;13.832;2022-08-21T02:43:27;13.80;99.90
12470;DHT22;36499;46.484;13.832;2022-08-21T02:45:56;13.80;99.90
12470;DHT22;36499;46.484;13.832;2022-08-21T02:48:27;13.70;99.90
12470;DHT22;36499;46.484;13.832;2022-08-21T02:50:57;13.70;99.90
12470;DHT22;36499;46.484;13.832;2022-08-21T02:53:27;13.70;99.90
12470;DHT22;36499;46.484;13.832;2022-08-21T02:55:57;13.60;99.90
12470;DHT22;36499;46.484;13.832;2022-08-21T02:58:30;13.60;99.90
12470;DHT22;36499;46.484;13.832;2022-08-21T03:00:59;13.50;99.90
12470;DHT22;36499;46.484;13.832;2022-08-21T03:03:28;13.50;99.90
12470;DHT22;36499;46.484;13.832;2022-08-21T03:05:56;13.50;99.90
12470;DHT22;36499;46.484;13.832;2022-08-21T03:08:23;13.50;99.90
12470;DHT22;36499;46.484;13.832;2022-08-21T03:10:52;13.50;99.90
12470;DHT22;36499;46.484;13.832;2022-08-21T03:13:19;13.50;99.90
12470;DHT22;36499;46.484;13.832;2022-08-21T03:15:48;13.40;99.90
12470;DHT22;36499;46.484;13.832;2022-08-21T03:18:16;13.40;99.90
12470;DHT22;36499;46.484;13.832;2022-08-21T03:20:45;13.40;99.90
12470;DHT22;36499;46.484;13.832;2022-08-21T03:23:14;13.40;99.90
12470;DHT22;36499;46.484;13.832;2022-08-21T03:25:43;13.40;99.90
12470;DHT22;36499;46.484;13.832;2022-08-21T03:28:14;13.30;99.90
12470;DHT22;36499;46.484;13.832;2022-08-21T03:30:45;13.30;99.90
12470;DHT22;36499;46.484;13.832;2022-08-21T03:33:14;13.30;99.90
12470;DHT22;36499;46.484;13.832;2022-08-21T03:35:45;13.30;99.90
12470;DHT22;36499;46.484;13.832;2022-08-21T03:38:14;13.30;99.90
12470;DHT22;36499;46.484;13.832;2022-08-21T03:40:42;13.30;99.90
12470;DHT22;36499;46.484;13.832;2022-08-21T03:43:10;13.30;99.90
12470;DHT22;36499;46.484;13.832;2022-08-21T03:45:37;13.30;99.90
12470;DHT22;36499;46.484;13.832;2022-08-21T03:48:06;13.30;99.90
12470;DHT22;36499;46.484;13.832;2022-08-21T03:50:38;13.30;99.90
12470;DHT22;36499;46.484;13.832;2022-08-21T03:53:11;13.40;99.90
12470;DHT22;36499;46.484;13.832;2022-08-21T03:55:39;13.40;99.90
12470;DHT22;36499;46.484;13.832;2022-08-21T03:58:07;13.40;99.90
12470;DHT22;36499;46.484;13.832;2022-08-21T04:00:34;13.50;99.90
12470;DHT22;36499;46.484;13.832;2022-08-21T04:03:03;13.50;99.90
12470;DHT22;36499;46.484;13.832;2022-08-21T04:05:30;13.50;99.90
12470;DHT22;36499;46.484;13.832;2022-08-21T04:08:01;13.50;99.90
12470;DHT22;36499;46.484;13.832;2022-08-21T04:10:33;13.50;99.90
12470;DHT22;36499;46.484;13.832;2022-08-21T04:13:03;13.50;99.90
12470;DHT22;36499;46.484;13.832;2022-08-21T04:15:31;13.50;99.90
12470;DHT22;36499;46.484;13.832;2022-08-21T04:17:58;13.60;99.90
12470;DHT22;36499;46.484;13.832;2022-08-21T04:20:26;13.50;99.90
12470;DHT22;36499;46.484;13.832;2022-08-21T04:22:53;13.50;99.90
12470;DHT22;36499;46.484;13.832;2022-08-21T04:25:22;13.50;99.90
12470;DHT22;36499;46.484;13.832;2022-08-21T04:27:52;13.50;99.90
12470;DHT22;36499;46.484;13.832;2022-08-21T04:30:19;13.40;99.90
12470;DHT22;36499;46.484;13.832;2022-08-21T04:32:49;13.40;99.90
12470;DHT22;36499;46.484;13.832;2022-08-21T04:35:18;13.40;99.90
12470;DHT22;36499;46.484;13.832;2022-08-21T04:37:47;13.30;99.90
12470;DHT22;36499;46.484;13.832;2022-08-21T04:40:16;13.40;99.90
12470;DHT22;36499;46.484;13.832;2022-08-21T04:42:48;13.40;99.90
12470;DHT22;36499;46.484;13.832;2022-08-21T04:45:21;13.40;99.90
12470;DHT22;36499;46.484;13.832;2022-08-21T04:47:51;13.50;99.90
12470;DHT22;36499;46.484;13.832;2022-08-21T04:50:20;13.50;99.90
12470;DHT22;36499;46.484;13.832;2022-08-21T04:52:51;13.60;99.90
12470;DHT22;36499;46.484;13.832;2022-08-21T04:55:20;13.60;99.90
12470;DHT22;36499;46.484;13.832;2022-08-21T04:57:49;13.60;99.90
12470;DHT22;36499;46.484;13.832;2022-08-21T05:00:20;13.60;99.90
12470;DHT22;36499;46.484;13.832;2022-08-21T05:02:50;13.60;99.90
12470;DHT22;36499;46.484;13.832;2022-08-21T05:05:21;13.60;99.90
12470;DHT22;36499;46.484;13.832;2022-08-21T05:07:49;13.60;99.90
12470;DHT22;36499;46.484;13.832;2022-08-21T05:10:17;13.50;99.90
12470;DHT22;36499;46.484;13.832;2022-08-21T05:12:45;13.60;99.90
12470;DHT22;36499;46.484;13.832;2022-08-21T05:15:12;13.50;99.90
12470;DHT22;36499;46.484;13.832;2022-08-21T05:17:41;13.50;99.90
12470;DHT22;36499;46.484;13.832;2022-08-21T05:20:09;13.50;99.90
12470;DHT22;36499;46.484;13.832;2022-08-21T05:22:37;13.40;99.90
12470;DHT22;36499;46.484;13.832;2022-08-21T05:25:06;13.40;99.90
12470;DHT22;36499;46.484;13.832;2022-08-21T05:27:35;13.40;99.90
12470;DHT22;36499;46.484;13.832;2022-08-21T05:30:03;13.40;99.90
12470;DHT22;36499;46.484;13.832;2022-08-21T05:32:33;13.40;99.90
12470;DHT22;36499;46.484;13.832;2022-08-21T05:35:02;13.50;99.90
12470;DHT22;36499;46.484;13.832;2022-08-21T05:37:30;13.50;99.90
12470;DHT22;36499;46.484;13.832;2022-08-21T05:39:58;13.50;99.90
12470;DHT22;36499;46.484;13.832;2022-08-21T05:42:25;13.60;99.90
12470;DHT22;36499;46.484;13.832;2022-08-21T05:44:53;13.70;99.90
12470;DHT22;36499;46.484;13.832;2022-08-21T05:47:20;13.70;99.90
12470;DHT22;36499;46.484;13.832;2022-08-21T05:49:47;13.80;99.90
12470;DHT22;36499;46.484;13.832;2022-08-21T05:52:20;13.80;99.90
12470;DHT22;36499;46.484;13.832;2022-08-21T05:54:48;13.90;99.90
12470;DHT22;36499;46.484;13.832;2022-08-21T05:57:19;13.90;99.90
12470;DHT22;36499;46.484;13.832;2022-08-21T05:59:47;14.00;99.90
12470;DHT22;36499;46.484;13.832;2022-08-21T06:02:16;14.10;99.90
12470;DHT22;36499;46.484;13.832;2022-08-21T06:04:43;14.10;99.90
12470;DHT22;36499;46.484;13.832;2022-08-21T06:07:10;14.20;99.90
12470;DHT22;36499;46.484;13.832;2022-08-21T06:09:39;14.20;99.90
12470;DHT22;36499;46.484;13.832;2022-08-21T06:12:08;14.20;99.90
12470;DHT22;36499;46.484;13.832;2022-08-21T06:14:39;14.30;99.90
12470;DHT22;36499;46.484;13.832;2022-08-21T06:17:09;14.30;99.90
12470;DHT22;36499;46.484;13.832;2022-08-21T06:19:37;14.30;99.90
12470;DHT22;36499;46.484;13.832;2022-08-21T06:22:05;14.40;99.90
12470;DHT22;36499;46.484;13.832;2022-08-21T06:24:32;14.40;99.90
12470;DHT22;36499;46.484;13.832;2022-08-21T06:27:08;14.50;99.90
12470;DHT22;36499;46.484;13.832;2022-08-21T06:29:35;14.60;99.90
12470;DHT22;36499;46.484;13.832;2022-08-21T06:32:04;14.60;99.90
12470;DHT22;36499;46.484;13.832;2022-08-21T06:34:36;14.70;99.90
12470;DHT22;36499;46.484;13.832;2022-08-21T06:37:04;14.90;99.90
12470;DHT22;36499;46.484;13.832;2022-08-21T06:39:32;15.00;99.90
12470;DHT22;36499;46.484;13.832;2022-08-21T06:42:00;15.10;99.90
12470;DHT22;36499;46.484;13.832;2022-08-21T06:44:29;15.20;99.90
12470;DHT22;36499;46.484;13.832;2022-08-21T06:46:57;15.30;99.90
12470;DHT22;36499;46.484;13.832;2022-08-21T06:49:24;15.40;99.90
12470;DHT22;36499;46.484;13.832;2022-08-21T06:51:51;15.40;99.90
12470;DHT22;36499;46.484;13.832;2022-08-21T06:54:18;15.50;99.90
12470;DHT22;36499;46.484;13.832;2022-08-21T06:56:45;15.60;99.90
12470;DHT22;36499;46.484;13.832;2022-08-21T06:59:12;15.60;99.90
12470;DHT22;36499;46.484;13.832;2022-08-21T07:01:41;15.60;99.90
12470;DHT22;36499;46.484;13.832;2022-08-21T07:04:08;15.70;99.90
12470;DHT22;36499;46.484;13.832;2022-08-21T07:06:36;15.70;99.90
12470;DHT22;36499;46.484;13.832;2022-08-21T07:09:03;15.70;99.90
12470;DHT22;36499;46.484;13.832;2022-08-21T07:11:30;15.80;99.90
12470;DHT22;36499;46.484;13.832;2022-08-21T07:13:57;15.80;99.90
12470;DHT22;36499;46.484;13.832;2022-08-21T07:16:25;15.80;99.90
12470;DHT22;36499;46.484;13.832;2022-08-21T07:18:53;15.90;99.90
12470;DHT22;36499;46.484;13.832;2022-08-21T07:21:20;15.90;99.90
12470;DHT22;36499;46.484;13.832;2022-08-21T07:23:50;16.00;99.90
12470;DHT22;36499;46.484;13.832;2022-08-21T07:26:20;16.10;99.90
12470;DHT22;36499;46.484;13.832;2022-08-21T07:28:49;16.10;99.90
12470;DHT22;36499;46.484;13.832;2022-08-21T07:31:19;16.30;99.90
12470;DHT22;36499;46.484;13.832;2022-08-21T07:33:48;16.40;99.90
12470;DHT22;36499;46.484;13.832;2022-08-21T07:36:17;16.60;99.90
12470;DHT22;36499;46.484;13.832;2022-08-21T07:38:44;16.80;99.90
12470;DHT22;36499;46.484;13.832;2022-08-21T07:41:14;17.10;99.90
12470;DHT22;36499;46.484;13.832;2022-08-21T07:43:46;17.40;99.90
12470;DHT22;36499;46.484;13.832;2022-08-21T07:46:13;17.60;99.90
12470;DHT22;36499;46.484;13.832;2022-08-21T07:48:41;18.00;99.90
12470;DHT22;36499;46.484;13.832;2022-08-21T07:51:14;18.30;99.90
12470;DHT22;36499;46.484;13.832;2022-08-21T07:53:47;18.60;99.90
12470;DHT22;36499;46.484;13.832;2022-08-21T07:56:15;18.80;99.90
12470;DHT22;36499;46.484;13.832;2022-08-21T07:58:43;19.00;99.90
12470;DHT22;36499;46.484;13.832;2022-08-21T08:01:10;19.20;99.90
12470;DHT22;36499;46.484;13.832;2022-08-21T08:03:37;19.40;99.90
12470;DHT22;36499;46.484;13.832;2022-08-21T08:06:05;19.60;99.90
12470;DHT22;36499;46.484;13.832;2022-08-21T08:08:38;19.90;99.90
12470;DHT22;36499;46.484;13.832;2022-08-21T08:11:06;20.10;99.90
12470;DHT22;36499;46.484;13.832;2022-08-21T08:13:38;20.20;99.90
12470;DHT22;36499;46.484;13.832;2022-08-21T08:16:06;20.30;99.90
12470;DHT22;36499;46.484;13.832;2022-08-21T08:18:34;20.30;99.90
12470;DHT22;36499;46.484;13.832;2022-08-21T08:21:01;20.30;99.90
12470;DHT22;36499;46.484;13.832;2022-08-21T08:23:28;20.50;99.90
12470;DHT22;36499;46.484;13.832;2022-08-21T08:25:57;20.70;99.90
12470;DHT22;36499;46.484;13.832;2022-08-21T08:28:25;20.80;99.90
12470;DHT22;36499;46.484;13.832;2022-08-21T08:30:52;20.90;99.90
12470;DHT22;36499;46.484;13.832;2022-08-21T08:33:20;21.20;99.90
12470;DHT22;36499;46.484;13.832;2022-08-21T08:35:50;21.40;99.90
12470;DHT22;36499;46.484;13.832;2022-08-21T08:38:19;21.70;99.90
12470;DHT22;36499;46.484;13.832;2022-08-21T08:40:53;21.90;99.90
12470;DHT22;36499;46.484;13.832;2022-08-21T08:43:27;21.90;99.90
12470;DHT22;36499;46.484;13.832;2022-08-21T08:45:58;21.70;99.60
12470;DHT22;36499;46.484;13.832;2022-08-21T08:48:39;21.80;99.90
12470;DHT22;36499;46.484;13.832;2022-08-21T08:51:16;22.00;99.90
12470;DHT22;36499;46.484;13.832;2022-08-21T08:53:52;22.10;99.90
12470;DHT22;36499;46.484;13.832;2022-08-21T08:56:28;22.00;99.10
12470;DHT22;36499;46.484;13.832;2022-08-21T08:59:01;22.10;96.80
12470;DHT22;36499;46.484;13.832;2022-08-21T09:01:35;22.10;98.00
12470;DHT22;36499;46.484;13.832;2022-08-21T09:04:03;22.10;95.80
12470;DHT22;36499;46.484;13.832;2022-08-21T09:07:03;22.20;95.30
12470;DHT22;36499;46.484;13.832;2022-08-21T09:09:51;22.20;95.90
12470;DHT22;36499;46.484;13.832;2022-08-21T09:12:37;22.10;95.60
12470;DHT22;36499;46.484;13.832;2022-08-21T09:15:19;22.10;94.60
12470;DHT22;36499;46.484;13.832;2022-08-21T09:18:03;22.20;95.90
12470;DHT22;36499;46.484;13.832;2022-08-21T09:20:44;22.50;96.30
12470;DHT22;36499;46.484;13.832;2022-08-21T09:23:29;22.90;94.30
12470;DHT22;36499;46.484;13.832;2022-08-21T09:26:07;22.90;92.50
12470;DHT22;36499;46.484;13.832;2022-08-21T09:28:41;23.00;92.00
12470;DHT22;36499;46.484;13.832;2022-08-21T09:31:16;23.00;91.60
12470;DHT22;36499;46.484;13.832;2022-08-21T09:33:49;22.90;91.00
12470;DHT22;36499;46.484;13.832;2022-08-21T09:36:25;22.80;91.20
12470;DHT22;36499;46.484;13.832;2022-08-21T09:39:00;22.90;91.30
12470;DHT22;36499;46.484;13.832;2022-08-21T09:41:30;23.10;90.30
12470;DHT22;36499;46.484;13.832;2022-08-21T09:44:02;23.40;91.60
12470;DHT22;36499;46.484;13.832;2022-08-21T09:46:30;23.60;91.60
12470;DHT22;36499;46.484;13.832;2022-08-21T09:48:59;23.60;89.10
12470;DHT22;36499;46.484;13.832;2022-08-21T09:51:31;23.60;89.40
12470;DHT22;36499;46.484;13.832;2022-08-21T09:54:14;23.50;89.70
12470;DHT22;36499;46.484;13.832;2022-08-21T09:56:54;23.50;88.20
12470;DHT22;36499;46.484;13.832;2022-08-21T09:59:43;23.70;91.40
12470;DHT22;36499;46.484;13.832;2022-08-21T10:02:23;23.80;88.70
12470;DHT22;36499;46.484;13.832;2022-08-21T10:04:55;23.90;85.60
12470;DHT22;36499;46.484;13.832;2022-08-21T10:07:26;23.90;84.00
12470;DHT22;36499;46.484;13.832;2022-08-21T10:10:00;23.80;83.70
12470;DHT22;36499;46.484;13.832;2022-08-21T10:12:36;23.80;87.10
12470;DHT22;36499;46.484;13.832;2022-08-21T10:15:18;23.90;85.60
12470;DHT22;36499;46.484;13.832;2022-08-21T10:18:10;23.90;88.00
12470;DHT22;36499;46.484;13.832;2022-08-21T10:20:49;24.00;85.70
12470;DHT22;36499;46.484;13.832;2022-08-21T10:23:48;23.90;81.90
12470;DHT22;36499;46.484;13.832;2022-08-21T10:26:43;23.80;80.80
12470;DHT22;36499;46.484;13.832;2022-08-21T10:29:42;23.70;80.50
12470;DHT22;36499;46.484;13.832;2022-08-21T10:32:41;23.80;78.80
12470;DHT22;36499;46.484;13.832;2022-08-21T10:35:26;24.00;84.90
12470;DHT22;36499;46.484;13.832;2022-08-21T10:38:32;24.10;84.10
12470;DHT22;36499;46.484;13.832;2022-08-21T10:41:15;24.10;84.80
12470;DHT22;36499;46.484;13.832;2022-08-21T10:43:57;24.10;81.50
12470;DHT22;36499;46.484;13.832;2022-08-21T10:46:46;24.40;78.60
12470;DHT22;36499;46.484;13.832;2022-08-21T10:49:24;24.70;82.50
12470;DHT22;36499;46.484;13.832;2022-08-21T10:52:22;24.80;80.40
12470;DHT22;36499;46.484;13.832;2022-08-21T10:55:06;24.50;76.90
12470;DHT22;36499;46.484;13.832;2022-08-21T10:57:41;24.20;79.20
12470;DHT22;36499;46.484;13.832;2022-08-21T11:00:17;24.50;84.20
12470;DHT22;36499;46.484;13.832;2022-08-21T11:02:51;24.80;78.50
12470;DHT22;36499;46.484;13.832;2022-08-21T11:05:30;25.00;80.70
12470;DHT22;36499;46.484;13.832;2022-08-21T11:08:03;25.00;77.20
12470;DHT22;36499;46.484;13.832;2022-08-21T11:10:37;24.80;73.40
12470;DHT22;36499;46.484;13.832;2022-08-21T11:13:12;24.50;73.50
12470;DHT22;36499;46.484;13.832;2022-08-21T11:15:50;24.40;76.50
12470;DHT22;36499;46.484;13.832;2022-08-21T11:18:24;24.50;83.20
12470;DHT22;36499;46.484;13.832;2022-08-21T11:21:12;24.60;81.10
12470;DHT22;36499;46.484;13.832;2022-08-21T11:23:50;24.50;77.20
12470;DHT22;36499;46.484;13.832;2022-08-21T11:26:30;24.30;75.90
12470;DHT22;36499;46.484;13.832;2022-08-21T11:29:10;24.00;74.70
12470;DHT22;36499;46.484;13.832;2022-08-21T11:31:56;24.10;81.90
12470;DHT22;36499;46.484;13.832;2022-08-21T11:34:48;24.60;81.80
12470;DHT22;36499;46.484;13.832;2022-08-21T11:37:45;25.10;79.70
12470;DHT22;36499;46.484;13.832;2022-08-21T11:40:31;25.40;83.30
12470;DHT22;36499;46.484;13.832;2022-08-21T11:43:16;25.40;77.60
12470;DHT22;36499;46.484;13.832;2022-08-21T11:45:51;25.20;74.20
12470;DHT22;36499;46.484;13.832;2022-08-21T11:48:31;25.20;75.00
12470;DHT22;36499;46.484;13.832;2022-08-21T11:51:11;24.90;79.00
12470;DHT22;36499;46.484;13.832;2022-08-21T11:53:48;24.60;76.30
12470;DHT22;36499;46.484;13.832;2022-08-21T11:56:32;24.20;75.10
12470;DHT22;36499;46.484;13.832;2022-08-21T11:59:09;23.80;76.30
12470;DHT22;36499;46.484;13.832;2022-08-21T12:01:46;23.40;76.90
12470;DHT22;36499;46.484;13.832;2022-08-21T12:04:26;23.20;79.50
12470;DHT22;36499;46.484;13.832;2022-08-21T12:06:56;23.20;79.90
12470;DHT22;36499;46.484;13.832;2022-08-21T12:09:38;23.40;80.00
12470;DHT22;36499;46.484;13.832;2022-08-21T12:12:11;23.50;82.50
12470;DHT22;36499;46.484;13.832;2022-08-21T12:14:51;24.00;80.50
12470;DHT22;36499;46.484;13.832;2022-08-21T12:17:36;24.40;78.00
12470;DHT22;36499;46.484;13.832;2022-08-21T12:20:17;24.70;77.90
12470;DHT22;36499;46.484;13.832;2022-08-21T12:22:53;24.90;79.70
12470;DHT22;36499;46.484;13.832;2022-08-21T12:25:37;25.00;77.90
12470;DHT22;36499;46.484;13.832;2022-08-21T12:28:08;25.00;73.00
12470;DHT22;36499;46.484;13.832;2022-08-21T12:30:40;24.80;74.50
12470;DHT22;36499;46.484;13.832;2022-08-21T12:33:22;24.60;76.30
12470;DHT22;36499;46.484;13.832;2022-08-21T12:36:00;24.60;73.80
12470;DHT22;36499;46.484;13.832;2022-08-21T12:38:39;24.50;71.60
12470;DHT22;36499;46.484;13.832;2022-08-21T12:41:19;25.00;78.90
12470;DHT22;36499;46.484;13.832;2022-08-21T12:43:53;25.40;71.00
12470;DHT22;36499;46.484;13.832;2022-08-21T12:46:30;25.70;73.70
12470;DHT22;36499;46.484;13.832;2022-08-21T12:49:08;25.90;71.20
12470;DHT22;36499;46.484;13.832;2022-08-21T12:51:49;25.80;67.00
12470;DHT22;36499;46.484;13.832;2022-08-21T12:54:26;25.50;66.00
12470;DHT22;36499;46.484;13.832;2022-08-21T12:57:01;25.30;66.90
12470;DHT22;36499;46.484;13.832;2022-08-21T12:59:30;25.10;65.60
12470;DHT22;36499;46.484;13.832;2022-08-21T13:02:00;24.70;67.00
12470;DHT22;36499;46.484;13.832;2022-08-21T13:04:36;24.50;67.00
12470;DHT22;36499;46.484;13.832;2022-08-21T13:07:07;24.40;68.60
12470;DHT22;36499;46.484;13.832;2022-08-21T13:09:43;24.40;71.50
12470;DHT22;36499;46.484;13.832;2022-08-21T13:12:16;24.80;71.90
12470;DHT22;36499;46.484;13.832;2022-08-21T13:14:46;25.30;71.40
12470;DHT22;36499;46.484;13.832;2022-08-21T13:17:18;25.80;68.90
12470;DHT22;36499;46.484;13.832;2022-08-21T13:19:56;26.10;64.80
12470;DHT22;36499;46.484;13.832;2022-08-21T13:22:26;26.20;66.20
12470;DHT22;36499;46.484;13.832;2022-08-21T13:24:55;26.40;66.00
12470;DHT22;36499;46.484;13.832;2022-08-21T13:27:26;26.50;61.60
12470;DHT22;36499;46.484;13.832;2022-08-21T13:30:08;26.80;65.60
12470;DHT22;36499;46.484;13.832;2022-08-21T13:32:41;27.00;63.10
12470;DHT22;36499;46.484;13.832;2022-08-21T13:35:14;27.20;65.00
12470;DHT22;36499;46.484;13.832;2022-08-21T13:37:45;27.40;62.20
12470;DHT22;36499;46.484;13.832;2022-08-21T13:40:17;27.40;66.40
12470;DHT22;36499;46.484;13.832;2022-08-21T13:42:48;27.40;64.30
12470;DHT22;36499;46.484;13.832;2022-08-21T13:45:22;27.50;61.10
12470;DHT22;36499;46.484;13.832;2022-08-21T13:47:51;27.70;63.30
12470;DHT22;36499;46.484;13.832;2022-08-21T13:50:21;27.70;59.60
12470;DHT22;36499;46.484;13.832;2022-08-21T13:52:57;27.70;63.70
12470;DHT22;36499;46.484;13.832;2022-08-21T13:55:35;27.80;60.70
12470;DHT22;36499;46.484;13.832;2022-08-21T13:58:06;27.60;62.90
12470;DHT22;36499;46.484;13.832;2022-08-21T14:00:35;27.30;57.50
12470;DHT22;36499;46.484;13.832;2022-08-21T14:03:10;27.20;56.40
12470;DHT22;36499;46.484;13.832;2022-08-21T14:05:45;27.20;59.60
12470;DHT22;36499;46.484;13.832;2022-08-21T14:08:18;27.40;59.90
12470;DHT22;36499;46.484;13.832;2022-08-21T14:10:51;27.50;57.20
12470;DHT22;36499;46.484;13.832;2022-08-21T14:13:29;27.70;60.30
12470;DHT22;36499;46.484;13.832;2022-08-21T14:16:10;27.10;56.00
12470;DHT22;36499;46.484;13.832;2022-08-21T14:18:49;27.10;62.40
12470;DHT22;36499;46.484;13.832;2022-08-21T14:21:30;27.20;60.60
12470;DHT22;36499;46.484;13.832;2022-08-21T14:24:04;27.60;59.90
12470;DHT22;36499;46.484;13.832;2022-08-21T14:26:35;27.80;66.20
12470;DHT22;36499;46.484;13.832;2022-08-21T14:29:13;27.90;61.20
12470;DHT22;36499;46.484;13.832;2022-08-21T14:31:42;28.00;57.30
12470;DHT22;36499;46.484;13.832;2022-08-21T14:34:16;28.10;58.80
12470;DHT22;36499;46.484;13.832;2022-08-21T14:36:43;28.20;61.10
12470;DHT22;36499;46.484;13.832;2022-08-21T14:39:11;28.20;55.20
12470;DHT22;36499;46.484;13.832;2022-08-21T14:41:38;28.10;58.00
12470;DHT22;36499;46.484;13.832;2022-08-21T14:44:06;28.10;55.70
12470;DHT22;36499;46.484;13.832;2022-08-21T14:46:35;28.10;56.00
12470;DHT22;36499;46.484;13.832;2022-08-21T14:49:03;28.00;57.80
12470;DHT22;36499;46.484;13.832;2022-08-21T14:51:30;27.80;57.70
12470;DHT22;36499;46.484;13.832;2022-08-21T14:53:58;27.80;58.20
12470;DHT22;36499;46.484;13.832;2022-08-21T14:56:25;27.50;55.00
12470;DHT22;36499;46.484;13.832;2022-08-21T14:59:03;27.30;53.90
12470;DHT22;36499;46.484;13.832;2022-08-21T15:01:33;27.30;57.20
12470;DHT22;36499;46.484;13.832;2022-08-21T15:04:03;27.30;58.20
12470;DHT22;36499;46.484;13.832;2022-08-21T15:06:31;27.20;56.40
12470;DHT22;36499;46.484;13.832;2022-08-21T15:08:58;27.00;56.70
12470;DHT22;36499;46.484;13.832;2022-08-21T15:11:27;26.70;58.60
12470;DHT22;36499;46.484;13.832;2022-08-21T15:13:57;26.50;57.80
12470;DHT22;36499;46.484;13.832;2022-08-21T15:16:27;26.40;60.30
12470;DHT22;36499;46.484;13.832;2022-08-21T15:18:57;26.40;57.90
12470;DHT22;36499;46.484;13.832;2022-08-21T15:21:24;26.40;58.80
12470;DHT22;36499;46.484;13.832;2022-08-21T15:23:51;26.40;57.70
12470;DHT22;36499;46.484;13.832;2022-08-21T15:26:20;26.50;58.90
12470;DHT22;36499;46.484;13.832;2022-08-21T15:28:49;26.60;59.80
12470;DHT22;36499;46.484;13.832;2022-08-21T15:31:16;26.60;57.60
12470;DHT22;36499;46.484;13.832;2022-08-21T15:33:44;26.70;56.10
12470;DHT22;36499;46.484;13.832;2022-08-21T15:36:12;26.90;58.90
12470;DHT22;36499;46.484;13.832;2022-08-21T15:38:40;27.10;64.30
12470;DHT22;36499;46.484;13.832;2022-08-21T15:41:07;27.20;64.20
12470;DHT22;36499;46.484;13.832;2022-08-21T15:43:38;27.10;59.70
12470;DHT22;36499;46.484;13.832;2022-08-21T15:46:12;27.00;59.20